createdAt,value
2018-09-10T00:00:02.436Z,947.71
2018-09-10T00:01:10.502Z,947.71
2018-09-10T00:02:18.578Z,947.71
2018-09-10T00:03:26.624Z,947.73
2018-09-10T00:04:35.071Z,947.71
2018-09-10T00:05:43.140Z,947.75
2018-09-10T00:06:51.010Z,947.71
2018-09-10T00:07:59.082Z,947.72
2018-09-10T00:09:07.137Z,947.70
2018-09-10T00:10:15.312Z,947.69
2018-09-10T00:11:23.300Z,947.71
2018-09-10T00:12:31.379Z,947.72
2018-09-10T00:13:39.450Z,947.70
2018-09-10T00:14:47.472Z,947.67
2018-09-10T00:15:55.894Z,947.68
2018-09-10T00:17:03.608Z,947.66
2018-09-10T00:18:11.697Z,947.67
2018-09-10T00:19:19.707Z,947.67
2018-09-10T00:20:27.782Z,947.71
2018-09-10T00:21:35.933Z,947.74
2018-09-10T00:22:43.905Z,947.75
2018-09-10T00:23:52.379Z,947.77
2018-09-10T00:25:00.026Z,947.82
2018-09-10T00:26:08.092Z,947.77
2018-09-10T00:27:16.463Z,947.76
2018-09-10T00:28:24.428Z,947.72
2018-09-10T00:29:32.472Z,947.77
2018-09-10T00:30:40.552Z,947.75
2018-09-10T00:31:48.618Z,947.79
2018-09-10T00:32:56.778Z,947.85
2018-09-10T00:34:04.729Z,947.84
2018-09-10T00:35:13.032Z,947.84
2018-09-10T00:36:20.881Z,947.86
2018-09-10T00:37:29.015Z,947.84
2018-09-10T00:38:36.976Z,947.85
2018-09-10T00:39:45.041Z,947.82
2018-09-10T00:40:53.090Z,947.81
2018-09-10T00:42:01.170Z,947.80
2018-09-10T00:43:09.336Z,947.80
2018-09-10T00:44:17.300Z,947.81
2018-09-10T00:45:25.620Z,947.84
2018-09-10T00:46:33.417Z,947.81
2018-09-10T00:47:41.477Z,947.81
2018-09-10T00:48:49.653Z,947.81
2018-09-10T00:49:57.603Z,947.81
2018-09-10T00:51:05.975Z,947.82
2018-09-10T00:52:13.736Z,947.78
2018-09-10T00:53:21.797Z,947.76
2018-09-10T00:54:29.949Z,947.75
2018-09-10T00:55:38.022Z,947.80
2018-09-10T00:56:46.350Z,947.80
2018-09-10T00:57:54.154Z,947.78
2018-09-10T00:59:02.109Z,947.80
2018-09-10T01:00:10.274Z,947.77
2018-09-10T01:01:18.239Z,947.78
2018-09-10T01:02:26.306Z,947.76
2018-09-10T01:03:34.357Z,947.78
2018-09-10T01:04:42.417Z,947.76
2018-09-10T01:05:50.603Z,947.79
2018-09-10T01:06:58.563Z,947.77
2018-09-10T01:09:17.898Z,947.79
2018-09-10T01:10:25.974Z,947.78
2018-09-10T01:11:34.122Z,947.76
2018-09-10T01:12:42.193Z,947.78
2018-09-10T01:13:50.153Z,947.75
2018-09-10T01:14:58.213Z,947.78
2018-09-10T01:16:07.546Z,947.76
2018-09-10T01:17:15.689Z,947.80
2018-09-10T01:18:23.730Z,947.78
2018-09-10T01:19:31.935Z,947.84
2018-09-10T01:20:39.723Z,947.85
2018-09-10T01:21:47.795Z,947.86
2018-09-10T01:22:56.160Z,947.87
2018-09-10T01:24:04.114Z,947.87
2018-09-10T01:25:12.176Z,947.88
2018-09-10T01:26:20.237Z,947.84
2018-09-10T01:27:28.395Z,947.82
2018-09-10T01:28:36.366Z,947.85
2018-09-10T01:29:44.683Z,947.82
2018-09-10T01:30:52.678Z,947.81
2018-09-10T01:32:00.747Z,947.82
2018-09-10T01:33:08.905Z,947.82
2018-09-10T01:34:16.881Z,947.85
2018-09-10T01:35:24.947Z,947.82
2018-09-10T01:36:32.981Z,947.82
2018-09-10T01:37:41.176Z,947.78
2018-09-10T01:38:49.137Z,947.80
2018-09-10T01:39:57.200Z,947.78
2018-09-10T01:41:05.440Z,947.78
2018-09-10T01:42:13.505Z,947.77
2018-09-10T01:43:21.665Z,947.74
2018-09-10T01:44:29.648Z,947.73
2018-09-10T01:45:37.718Z,947.74
2018-09-10T01:46:46.032Z,947.74
2018-09-10T01:47:54.897Z,947.74
2018-09-10T01:49:02.044Z,947.70
2018-09-10T01:50:09.953Z,947.68
2018-09-10T01:51:18.017Z,947.70
2018-09-10T01:52:26.088Z,947.68
2018-09-10T01:53:35.223Z,947.70
2018-09-10T01:54:42.380Z,947.69
2018-09-10T01:55:50.372Z,947.72
2018-09-10T01:56:58.324Z,947.71
2018-09-10T01:58:06.401Z,947.70
2018-09-10T01:59:15.178Z,947.74
2018-09-10T02:00:23.203Z,947.78
2018-09-10T02:01:31.284Z,947.76
2018-09-10T02:02:39.255Z,947.75
2018-09-10T02:03:47.581Z,947.73
2018-09-10T02:04:55.381Z,947.72
2018-09-10T02:06:03.535Z,947.70
2018-09-10T02:07:11.500Z,947.72
2018-09-10T02:08:19.560Z,947.69
2018-09-10T02:09:27.723Z,947.73
2018-09-10T02:10:35.687Z,947.67
2018-09-10T02:11:43.843Z,947.68
2018-09-10T02:12:52.802Z,947.70
2018-09-10T02:14:00.011Z,947.67
2018-09-10T02:15:08.040Z,947.63
2018-09-10T02:16:16.003Z,947.65
2018-09-10T02:17:25.218Z,947.65
2018-09-10T02:18:32.127Z,947.66
2018-09-10T02:19:40.199Z,947.63
2018-09-10T02:20:48.252Z,947.64
2018-09-10T02:21:56.507Z,947.62
2018-09-10T02:23:05.038Z,947.58
2018-09-10T02:24:13.092Z,947.59
2018-09-10T02:25:20.916Z,947.59
2018-09-10T02:26:28.974Z,947.60
2018-09-10T02:27:37.455Z,947.56
2018-09-10T02:28:45.103Z,947.58
2018-09-10T02:29:53.126Z,947.53
2018-09-10T02:31:01.305Z,947.50
2018-09-10T02:32:09.277Z,947.51
2018-09-10T02:33:17.446Z,947.50
2018-09-10T02:34:25.431Z,947.51
2018-09-10T02:35:33.472Z,947.52
2018-09-10T02:36:44.698Z,947.51
2018-09-10T02:37:49.604Z,947.50
2018-09-10T02:38:57.762Z,947.49
2018-09-10T02:40:05.722Z,947.51
2018-09-10T02:41:14.026Z,947.51
2018-09-10T02:42:21.839Z,947.49
2018-09-10T02:43:29.903Z,947.50
2018-09-10T02:44:38.064Z,947.51
2018-09-10T02:45:46.019Z,947.51
2018-09-10T02:46:54.174Z,947.51
2018-09-10T02:48:02.153Z,947.51
2018-09-10T02:49:10.216Z,947.49
2018-09-10T02:50:18.387Z,947.49
2018-09-10T02:51:26.344Z,947.51
2018-09-10T02:52:34.645Z,947.51
2018-09-10T02:53:42.494Z,947.51
2018-09-10T02:54:50.535Z,947.49
2018-09-10T02:55:58.680Z,947.49
2018-09-10T02:57:06.641Z,947.49
2018-09-10T02:58:14.716Z,947.52
2018-09-10T02:59:22.753Z,947.52
2018-09-10T03:00:30.854Z,947.51
2018-09-10T03:01:38.996Z,947.51
2018-09-10T03:02:47.059Z,947.52
2018-09-10T03:03:55.035Z,947.51
2018-09-10T03:05:03.081Z,947.51
2018-09-10T03:06:11.161Z,947.53
2018-09-10T03:07:19.307Z,947.49
2018-09-10T03:08:27.494Z,947.50
2018-09-10T03:09:35.551Z,947.48
2018-09-10T03:10:43.731Z,947.51
2018-09-10T03:11:51.691Z,947.50
2018-09-10T03:12:59.828Z,947.51
2018-09-10T03:14:07.795Z,947.51
2018-09-10T03:15:17.199Z,947.55
2018-09-10T03:16:23.918Z,947.54
2018-09-10T03:17:32.070Z,947.56
2018-09-10T03:18:40.078Z,947.59
2018-09-10T03:19:48.195Z,947.58
2018-09-10T03:20:56.170Z,947.60
2018-09-10T03:22:04.543Z,947.58
2018-09-10T03:23:12.375Z,947.61
2018-09-10T03:24:20.347Z,947.62
2018-09-10T03:25:28.413Z,947.65
2018-09-10T03:26:36.485Z,947.69
2018-09-10T03:27:44.554Z,947.68
2018-09-10T03:28:52.677Z,947.71
2018-09-10T03:30:00.677Z,947.74
2018-09-10T03:31:08.733Z,947.70
2018-09-10T03:32:16.901Z,947.73
2018-09-10T03:33:25.206Z,947.71
2018-09-10T03:34:32.990Z,947.68
2018-09-10T03:35:40.987Z,947.74
2018-09-10T03:36:49.042Z,947.74
2018-09-10T03:37:57.152Z,947.74
2018-09-10T03:39:05.174Z,947.78
2018-09-10T03:40:13.305Z,947.77
2018-09-10T03:41:21.292Z,947.81
2018-09-10T03:42:29.348Z,947.81
2018-09-10T03:43:37.419Z,947.81
2018-09-10T03:44:45.529Z,947.83
2018-09-10T03:45:53.626Z,947.85
2018-09-10T03:47:01.619Z,947.85
2018-09-10T03:48:09.753Z,947.85
2018-09-10T03:49:17.712Z,947.86
2018-09-10T03:50:26.107Z,947.90
2018-09-10T03:51:33.954Z,947.88
2018-09-10T03:52:41.900Z,947.89
2018-09-10T03:53:50.244Z,947.92
2018-09-10T03:54:58.043Z,947.93
2018-09-10T03:56:06.101Z,947.93
2018-09-10T03:57:14.267Z,947.95
2018-09-10T03:58:22.238Z,947.96
2018-09-10T03:59:30.543Z,947.97
2018-09-10T04:00:38.555Z,947.97
2018-09-10T04:01:46.610Z,947.99
2018-09-10T04:02:54.826Z,947.95
2018-09-10T04:04:02.826Z,947.96
2018-09-10T04:05:10.800Z,947.91
2018-09-10T04:06:18.867Z,947.93
2018-09-10T04:07:27.099Z,947.91
2018-09-10T04:08:35.057Z,947.98
2018-09-10T04:09:43.029Z,947.98
2018-09-10T04:10:51.111Z,947.97
2018-09-10T04:11:59.310Z,947.94
2018-09-10T04:13:07.491Z,947.97
2018-09-10T04:14:15.506Z,947.93
2018-09-10T04:15:23.573Z,947.91
2018-09-10T04:16:31.677Z,947.93
2018-09-10T04:17:39.988Z,947.95
2018-09-10T04:18:47.962Z,947.92
2018-09-10T04:19:56.107Z,947.96
2018-09-10T04:21:04.087Z,947.95
2018-09-10T04:22:12.151Z,947.98
2018-09-10T04:23:20.298Z,948.01
2018-09-10T04:24:28.466Z,948.01
2018-09-10T04:25:36.822Z,948.04
2018-09-10T04:26:44.401Z,948.00
2018-09-10T04:27:52.531Z,948.02
2018-09-10T04:29:00.996Z,948.06
2018-09-10T04:30:08.589Z,948.02
2018-09-10T04:31:16.786Z,948.04
2018-09-10T04:32:24.696Z,947.98
2018-09-10T04:33:32.740Z,947.98
2018-09-10T04:34:40.832Z,947.97
2018-09-10T04:35:48.988Z,947.97
2018-09-10T04:36:56.956Z,948.03
2018-09-10T04:38:05.157Z,948.01
2018-09-10T04:39:13.060Z,948.07
2018-09-10T04:40:21.137Z,948.04
2018-09-10T04:41:29.198Z,948.04
2018-09-10T04:42:37.257Z,948.05
2018-09-10T04:43:45.415Z,948.08
2018-09-10T04:44:53.422Z,948.11
2018-09-10T04:46:01.470Z,948.14
2018-09-10T04:47:09.516Z,948.13
2018-09-10T04:48:17.770Z,948.18
2018-09-10T04:49:25.932Z,948.16
2018-09-10T04:50:33.898Z,948.19
2018-09-10T04:51:42.059Z,948.10
2018-09-10T04:52:50.020Z,948.13
2018-09-10T04:53:58.096Z,948.12
2018-09-10T04:55:06.249Z,948.21
2018-09-10T04:56:14.209Z,948.18
2018-09-10T04:57:22.278Z,948.21
2018-09-10T04:58:30.334Z,948.24
2018-09-10T04:59:38.397Z,948.25
2018-09-10T05:00:46.558Z,948.23
2018-09-10T05:01:55.286Z,948.22
2018-09-10T05:03:02.580Z,948.26
2018-09-10T05:04:11.175Z,948.22
2018-09-10T05:05:19.138Z,948.23
2018-09-10T05:06:27.501Z,948.20
2018-09-10T05:07:35.148Z,948.22
2018-09-10T05:08:43.321Z,948.25
2018-09-10T05:09:51.230Z,948.26
2018-09-10T05:10:59.225Z,948.28
2018-09-10T05:12:07.387Z,948.31
2018-09-10T05:13:15.339Z,948.36
2018-09-10T05:14:23.411Z,948.35
2018-09-10T05:15:31.485Z,948.39
2018-09-10T05:16:39.581Z,948.41
2018-09-10T05:17:47.706Z,948.46
2018-09-10T05:18:56.198Z,948.45
2018-09-10T05:20:03.919Z,948.48
2018-09-10T05:21:12.001Z,948.48
2018-09-10T05:22:20.049Z,948.49
2018-09-10T05:23:28.204Z,948.51
2018-09-10T05:24:36.185Z,948.54
2018-09-10T05:25:44.235Z,948.52
2018-09-10T05:26:52.557Z,948.49
2018-09-10T05:28:00.811Z,948.53
2018-09-10T05:29:08.429Z,948.49
2018-09-10T05:30:16.500Z,948.55
2018-09-10T05:31:24.552Z,948.55
2018-09-10T05:32:32.692Z,948.53
2018-09-10T05:33:40.774Z,948.54
2018-09-10T05:34:48.742Z,948.55
2018-09-10T05:35:56.814Z,948.57
2018-09-10T05:37:04.865Z,948.60
2018-09-10T05:38:12.994Z,948.60
2018-09-10T05:39:20.984Z,948.62
2018-09-10T05:40:29.045Z,948.62
2018-09-10T05:41:37.397Z,948.64
2018-09-10T05:42:45.378Z,948.59
2018-09-10T05:43:53.527Z,948.64
2018-09-10T05:45:01.510Z,948.61
2018-09-10T05:46:09.567Z,948.58
2018-09-10T05:47:17.662Z,948.56
2018-09-10T05:48:25.692Z,948.56
2018-09-10T05:49:33.838Z,948.53
2018-09-10T05:50:41.884Z,948.55
2018-09-10T05:51:49.882Z,948.59
2018-09-10T05:52:58.122Z,948.59
2018-09-10T05:54:05.994Z,948.66
2018-09-10T05:55:14.206Z,948.66
2018-09-10T05:56:22.164Z,948.63
2018-09-10T05:57:30.181Z,948.70
2018-09-10T05:58:38.252Z,948.69
2018-09-10T05:59:46.415Z,948.64
2018-09-10T06:00:54.479Z,948.66
2018-09-10T06:02:02.422Z,948.66
2018-09-10T06:03:10.503Z,948.66
2018-09-10T06:04:18.802Z,948.65
2018-09-10T06:05:26.632Z,948.67
2018-09-10T06:06:34.858Z,948.67
2018-09-10T06:07:43.856Z,948.69
2018-09-10T06:08:50.848Z,948.69
2018-09-10T06:09:58.880Z,948.66
2018-09-10T06:11:06.943Z,948.69
2018-09-10T06:12:15.114Z,948.69
2018-09-10T06:13:23.056Z,948.68
2018-09-10T06:14:31.134Z,948.63
2018-09-10T06:15:39.295Z,948.64
2018-09-10T06:16:47.374Z,948.62
2018-09-10T06:17:55.407Z,948.62
2018-09-10T06:19:03.695Z,948.69
2018-09-10T06:20:11.802Z,948.69
2018-09-10T06:21:19.552Z,948.73
2018-09-10T06:22:27.674Z,948.68
2018-09-10T06:23:35.640Z,948.67
2018-09-10T06:24:43.701Z,948.74
2018-09-10T06:25:51.760Z,948.77
2018-09-10T06:26:59.822Z,948.78
2018-09-10T06:28:07.982Z,948.80
2018-09-10T06:29:16.054Z,948.80
2018-09-10T06:30:24.041Z,948.78
2018-09-10T06:31:32.091Z,948.79
2018-09-10T06:32:40.178Z,948.81
2018-09-10T06:33:48.404Z,948.85
2018-09-10T06:34:56.283Z,948.90
2018-09-10T06:36:04.345Z,948.90
2018-09-10T06:37:12.465Z,948.90
2018-09-10T06:38:20.571Z,948.94
2018-09-10T06:39:28.627Z,948.91
2018-09-10T06:40:36.598Z,948.94
2018-09-10T06:41:44.648Z,948.94
2018-09-10T06:42:52.692Z,948.98
2018-09-10T06:44:00.798Z,949.05
2018-09-10T06:45:08.946Z,949.09
2018-09-10T06:46:16.913Z,949.05
2018-09-10T06:47:24.997Z,949.03
2018-09-10T06:48:33.117Z,949.05
2018-09-10T06:49:41.103Z,949.10
2018-09-10T06:50:49.284Z,949.06
2018-09-10T06:51:57.241Z,949.19
2018-09-10T06:53:05.431Z,949.22
2018-09-10T06:54:13.352Z,949.11
2018-09-10T06:55:21.440Z,949.12
2018-09-10T06:56:30.139Z,949.26
2018-09-10T06:57:37.763Z,949.19
2018-09-10T06:58:46.163Z,949.26
2018-09-10T06:59:54.039Z,949.37
2018-09-10T07:01:02.198Z,949.31
2018-09-10T07:02:10.376Z,949.25
2018-09-10T07:03:18.335Z,949.69
2018-09-10T07:04:26.753Z,950.39
2018-09-10T07:05:34.602Z,951.13
2018-09-10T07:06:42.820Z,950.23
2018-09-10T07:07:50.674Z,949.67
2018-09-10T07:08:58.656Z,950.17
2018-09-10T07:10:06.722Z,951.32
2018-09-10T07:11:14.794Z,951.82
2018-09-10T07:12:22.824Z,951.42
2018-09-10T07:13:30.919Z,951.25
2018-09-10T07:15:52.893Z,951.27
2018-09-10T07:17:00.986Z,951.00
2018-09-10T07:18:11.354Z,950.94
2018-09-10T07:19:19.327Z,950.85
2018-09-10T07:20:27.390Z,950.99
2018-09-10T07:21:35.461Z,951.18
2018-09-10T07:22:43.612Z,951.39
2018-09-10T07:23:51.608Z,951.41
2018-09-10T07:24:59.678Z,951.34
2018-09-10T07:26:07.752Z,951.31
2018-09-10T07:27:16.030Z,951.63
2018-09-10T07:30:46.483Z,951.70
2018-09-10T07:31:54.566Z,951.77
2018-09-10T07:34:13.415Z,951.87
2018-09-10T07:35:21.713Z,952.01
2018-09-10T07:37:43.741Z,952.14
2018-09-10T07:38:51.679Z,952.17
2018-09-10T07:39:59.839Z,952.36
2018-09-10T07:42:20.133Z,952.82
2018-09-10T07:43:30.226Z,953.09
2018-09-10T07:44:40.502Z,953.25
2018-09-10T07:47:02.582Z,953.60
2018-09-10T07:48:10.642Z,954.19
2018-09-10T07:49:18.683Z,954.48
2018-09-10T07:50:26.834Z,955.10
2018-09-10T07:51:35.035Z,956.34
2018-09-10T07:52:42.872Z,956.96
2018-09-10T07:53:50.975Z,957.01
2018-09-10T07:54:59.044Z,957.87
2018-09-10T07:56:07.111Z,958.99
2018-09-10T07:57:15.295Z,959.74
2018-09-10T07:58:23.253Z,960.35
2018-09-10T07:59:31.357Z,961.45
2018-09-10T08:00:39.432Z,961.85
2018-09-10T08:01:47.712Z,961.84
2018-09-10T08:02:55.961Z,962.38
2018-09-10T08:04:03.911Z,963.15
2018-09-10T08:05:11.932Z,964.84
2018-09-10T08:06:20.149Z,965.34
2018-09-10T08:07:28.208Z,966.62
2018-09-10T08:08:36.270Z,967.49
2018-09-10T08:09:44.324Z,968.83
2018-09-10T08:12:03.004Z,970.81
2018-09-10T08:13:11.211Z,971.71
2018-09-10T08:14:19.243Z,972.73
2018-09-10T08:15:27.253Z,974.19
2018-09-10T08:16:35.501Z,971.19
2018-09-10T08:17:43.502Z,972.07
2018-09-10T08:18:51.493Z,973.92
2018-09-10T08:19:59.874Z,973.58
2018-09-10T08:22:24.809Z,971.46
2018-09-10T08:23:32.966Z,973.39
2018-09-10T08:24:40.975Z,978.13
2018-09-10T08:25:49.064Z,982.09
2018-09-10T08:26:57.132Z,979.96
2018-09-10T08:28:05.208Z,977.95
2018-09-10T08:29:13.366Z,975.11
2018-09-10T08:30:21.377Z,970.93
2018-09-10T08:31:29.430Z,966.68
2018-09-10T08:32:37.506Z,965.74
2018-09-10T08:33:45.599Z,969.56
2018-09-10T08:34:53.775Z,973.87
2018-09-10T08:36:01.731Z,976.01
2018-09-10T08:37:09.832Z,979.93
2018-09-10T08:38:17.918Z,980.39
2018-09-10T08:39:26.039Z,978.64
2018-09-10T08:40:34.161Z,970.95
2018-09-10T08:41:42.132Z,953.29
2018-09-10T08:42:50.278Z,950.03
2018-09-10T08:43:58.338Z,950.03
2018-09-10T08:45:06.359Z,950.02
2018-09-10T08:46:14.541Z,950.03
2018-09-10T08:47:22.567Z,949.93
2018-09-10T08:49:41.282Z,949.90
2018-09-10T08:50:49.362Z,949.91
2018-09-10T08:51:57.537Z,949.94
2018-09-10T08:53:05.509Z,949.93
2018-09-10T08:54:13.759Z,949.92
2018-09-10T08:55:21.802Z,949.92
2018-09-10T08:56:29.749Z,949.95
2018-09-10T08:57:37.902Z,949.96
2018-09-10T08:58:45.884Z,950.00
2018-09-10T08:59:53.945Z,949.99
2018-09-10T09:01:02.037Z,949.98
2018-09-10T09:02:10.100Z,950.06
2018-09-10T09:03:18.393Z,950.07
2018-09-10T09:04:26.233Z,950.04
2018-09-10T09:05:34.303Z,950.06
2018-09-10T09:06:42.400Z,950.07
2018-09-10T09:07:50.580Z,950.10
2018-09-10T09:08:58.505Z,950.05
2018-09-10T09:10:06.603Z,950.08
2018-09-10T09:11:14.766Z,950.12
2018-09-10T09:12:22.927Z,950.10
2018-09-10T09:13:31.025Z,950.07
2018-09-10T09:14:39.081Z,950.03
2018-09-10T09:15:47.443Z,950.02
2018-09-10T09:16:55.227Z,950.02
2018-09-10T09:18:03.393Z,950.09
2018-09-10T09:19:11.356Z,950.09
2018-09-10T09:20:19.714Z,950.07
2018-09-10T09:21:27.516Z,950.06
2018-09-10T09:23:46.804Z,950.05
2018-09-10T09:24:54.963Z,950.06
2018-09-10T09:26:03.015Z,950.03
2018-09-10T09:27:11.190Z,950.04
2018-09-10T09:28:19.167Z,950.05
2018-09-10T09:29:27.340Z,950.01
2018-09-10T09:30:35.318Z,950.01
2018-09-10T09:31:43.416Z,950.01
2018-09-10T09:32:51.519Z,950.02
2018-09-10T09:33:59.522Z,950.06
2018-09-10T09:35:07.702Z,950.01
2018-09-10T09:36:15.696Z,950.01
2018-09-10T09:37:23.747Z,950.01
2018-09-10T09:38:31.818Z,949.99
2018-09-10T09:39:40.263Z,949.98
2018-09-10T09:40:48.053Z,949.95
2018-09-10T09:41:56.023Z,949.94
2018-09-10T09:43:06.008Z,949.94
2018-09-10T09:44:13.975Z,949.92
2018-09-10T09:45:22.052Z,949.92
2018-09-10T09:46:30.223Z,949.91
2018-09-10T09:47:38.305Z,949.94
2018-09-10T09:48:46.269Z,949.96
2018-09-10T09:49:54.425Z,949.90
2018-09-10T09:51:02.393Z,949.94
2018-09-10T09:52:10.587Z,949.87
2018-09-10T09:53:18.817Z,949.91
2018-09-10T09:54:26.622Z,949.93
2018-09-10T09:55:34.960Z,949.90
2018-09-10T09:56:43.083Z,949.94
2018-09-10T09:57:50.978Z,949.92
2018-09-10T09:58:58.905Z,949.91
2018-09-10T10:00:08.017Z,949.96
2018-09-10T10:01:15.037Z,949.94
2018-09-10T10:02:23.088Z,949.95
2018-09-10T10:03:31.381Z,949.91
2018-09-10T10:04:39.516Z,949.94
2018-09-10T10:05:47.504Z,949.96
2018-09-10T10:08:13.095Z,949.94
2018-09-10T10:09:20.824Z,949.97
2018-09-10T10:10:28.899Z,949.98
2018-09-10T10:11:36.979Z,950.01
2018-09-10T10:12:45.141Z,949.94
2018-09-10T10:13:53.190Z,949.98
2018-09-10T10:15:01.275Z,949.97
2018-09-10T10:16:09.246Z,950.00
2018-09-10T10:17:17.532Z,950.04
2018-09-10T10:18:25.597Z,950.03
2018-09-10T10:19:33.755Z,950.05
2018-09-10T10:20:41.744Z,950.10
2018-09-10T10:21:49.811Z,950.05
2018-09-10T10:22:57.878Z,950.02
2018-09-10T10:24:05.945Z,950.05
2018-09-10T10:25:14.341Z,950.05
2018-09-10T10:26:22.299Z,950.00
2018-09-10T10:27:30.472Z,950.00
2018-09-10T10:28:38.452Z,950.01
2018-09-10T10:29:46.527Z,949.93
2018-09-10T10:30:54.787Z,949.92
2018-09-10T10:32:02.637Z,949.92
2018-09-10T10:33:10.723Z,949.89
2018-09-10T10:34:18.849Z,949.89
2018-09-10T10:35:26.883Z,949.86
2018-09-10T10:36:35.040Z,949.85
2018-09-10T10:37:43.006Z,949.86
2018-09-10T10:38:51.096Z,949.90
2018-09-10T10:40:00.585Z,949.92
2018-09-10T10:41:08.648Z,949.90
2018-09-10T10:42:16.811Z,949.93
2018-09-10T10:43:24.872Z,949.91
2018-09-10T10:44:32.826Z,949.92
2018-09-10T10:45:40.929Z,949.90
2018-09-10T10:46:49.275Z,949.97
2018-09-10T10:47:57.165Z,949.87
2018-09-10T10:49:05.142Z,949.91
2018-09-10T10:50:13.194Z,949.88
2018-09-10T10:51:21.296Z,949.94
2018-09-10T10:52:29.462Z,949.96
2018-09-10T10:53:37.708Z,949.97
2018-09-10T10:54:46.576Z,950.02
2018-09-10T10:55:53.591Z,950.02
2018-09-10T10:57:01.647Z,950.00
2018-09-10T10:58:09.808Z,950.06
2018-09-10T10:59:17.901Z,950.06
2018-09-10T11:00:25.870Z,950.06
2018-09-10T11:01:33.928Z,950.05
2018-09-10T11:02:42.107Z,950.08
2018-09-10T11:03:50.209Z,950.06
2018-09-10T11:04:58.158Z,950.05
2018-09-10T11:06:06.226Z,950.06
2018-09-10T11:07:14.298Z,950.07
2018-09-10T11:08:22.463Z,950.04
2018-09-10T11:09:30.453Z,950.03
2018-09-10T11:10:38.517Z,950.02
2018-09-10T11:11:46.617Z,950.03
2018-09-10T11:12:54.769Z,950.05
2018-09-10T11:14:02.709Z,950.05
2018-09-10T11:15:10.911Z,950.05
2018-09-10T11:16:18.882Z,950.07
2018-09-10T11:17:26.963Z,950.06
2018-09-10T11:18:35.034Z,950.10
2018-09-10T11:19:43.084Z,950.11
2018-09-10T11:20:51.182Z,950.09
2018-09-10T11:21:59.284Z,950.07
2018-09-10T11:24:19.020Z,950.05
2018-09-10T11:25:27.115Z,950.08
2018-09-10T11:26:35.186Z,950.02
2018-09-10T11:27:43.401Z,949.99
2018-09-10T11:28:51.343Z,949.99
2018-09-10T11:29:59.411Z,950.00
2018-09-10T11:31:08.580Z,949.97
2018-09-10T11:32:15.555Z,949.95
2018-09-10T11:33:23.731Z,949.95
2018-09-10T11:34:31.710Z,949.98
2018-09-10T11:35:39.820Z,949.98
2018-09-10T11:36:47.826Z,949.95
2018-09-10T11:37:56.178Z,950.00
2018-09-10T11:39:04.077Z,949.96
2018-09-10T11:40:12.050Z,949.98
2018-09-10T11:41:20.129Z,949.97
2018-09-10T11:42:28.297Z,949.94
2018-09-10T11:43:36.275Z,949.89
2018-09-10T11:44:44.443Z,949.93
2018-09-10T11:45:52.414Z,949.93
2018-09-10T11:47:00.594Z,949.92
2018-09-10T11:49:20.880Z,949.92
2018-09-10T11:50:29.046Z,949.86
2018-09-10T11:51:37.228Z,949.81
2018-09-10T11:53:58.223Z,949.81
2018-09-10T11:55:06.282Z,949.79
2018-09-10T11:56:14.451Z,949.81
2018-09-10T11:57:22.410Z,949.81
2018-09-10T11:58:30.501Z,949.81
2018-09-10T11:59:38.587Z,949.82
2018-09-10T12:00:46.654Z,949.76
2018-09-10T12:03:05.416Z,949.77
2018-09-10T12:04:13.481Z,949.76
2018-09-10T12:05:21.654Z,949.77
2018-09-10T12:06:29.627Z,949.80
2018-09-10T12:07:37.841Z,949.73
2018-09-10T12:08:45.768Z,949.76
2018-09-10T12:09:53.845Z,949.72
2018-09-10T12:11:01.916Z,949.74
2018-09-10T12:12:09.988Z,949.71
2018-09-10T12:13:18.738Z,949.71
2018-09-10T12:14:26.137Z,949.68
2018-09-10T12:15:34.199Z,949.62
2018-09-10T12:16:42.277Z,949.64
2018-09-10T12:17:50.437Z,949.63
2018-09-10T12:18:58.430Z,949.58
2018-09-10T12:20:06.500Z,949.55
2018-09-10T12:21:14.832Z,949.59
2018-09-10T12:22:22.613Z,949.56
2018-09-10T12:23:30.699Z,949.58
2018-09-10T12:24:38.784Z,949.59
2018-09-10T12:25:46.855Z,949.58
2018-09-10T12:26:54.924Z,949.54
2018-09-10T12:28:03.082Z,949.53
2018-09-10T12:29:11.077Z,949.52
2018-09-10T12:30:19.139Z,949.56
2018-09-10T12:31:27.212Z,949.58
2018-09-10T12:32:35.369Z,949.61
2018-09-10T12:33:43.437Z,949.61
2018-09-10T12:34:51.430Z,949.59
2018-09-10T12:35:59.503Z,949.59
2018-09-10T12:37:07.591Z,949.58
2018-09-10T12:38:15.653Z,949.58
2018-09-10T12:39:23.854Z,949.60
2018-09-10T12:40:31.999Z,949.60
2018-09-10T12:41:40.326Z,949.57
2018-09-10T12:42:48.188Z,949.58
2018-09-10T12:43:56.204Z,949.64
2018-09-10T12:45:04.379Z,949.60
2018-09-10T12:46:12.446Z,949.62
2018-09-10T12:47:20.436Z,949.62
2018-09-10T12:48:28.601Z,949.64
2018-09-10T12:49:36.578Z,949.68
2018-09-10T12:50:44.952Z,949.58
2018-09-10T12:51:52.907Z,949.64
2018-09-10T12:53:01.015Z,949.59
2018-09-10T12:54:09.071Z,949.58
2018-09-10T12:55:17.145Z,949.60
2018-09-10T12:56:25.404Z,949.63
2018-09-10T12:57:33.314Z,949.60
2018-09-10T12:58:41.633Z,949.58
2018-09-10T12:59:49.438Z,949.61
2018-09-10T13:00:57.608Z,949.63
2018-09-10T13:02:05.687Z,949.58
2018-09-10T13:03:13.664Z,949.52
2018-09-10T13:04:21.845Z,949.46
2018-09-10T13:05:29.842Z,949.45
2018-09-10T13:06:38.900Z,949.43
2018-09-10T13:07:46.038Z,949.42
2018-09-10T13:08:54.011Z,949.34
2018-09-10T13:10:02.099Z,949.38
2018-09-10T13:11:10.380Z,949.40
2018-09-10T13:12:18.447Z,949.38
2018-09-10T13:13:26.697Z,949.39
2018-09-10T13:14:34.640Z,949.40
2018-09-10T13:15:42.658Z,949.36
2018-09-10T13:16:50.742Z,949.35
2018-09-10T13:17:58.910Z,949.33
2018-09-10T13:19:07.148Z,949.30
2018-09-10T13:20:15.055Z,949.27
2018-09-10T13:21:22.996Z,949.28
2018-09-10T13:22:31.185Z,949.30
2018-09-10T13:23:39.180Z,949.28
2018-09-10T13:24:47.240Z,949.30
2018-09-10T13:25:55.318Z,949.27
2018-09-10T13:27:03.509Z,949.26
2018-09-10T13:28:11.761Z,949.22
2018-09-10T13:29:19.732Z,949.16
2018-09-10T13:30:27.822Z,949.19
2018-09-10T13:31:35.899Z,949.19
2018-09-10T13:32:44.217Z,949.15
2018-09-10T13:33:52.128Z,949.14
2018-09-10T13:35:00.311Z,949.14
2018-09-10T13:36:08.489Z,949.10
2018-09-10T13:37:16.507Z,949.09
2018-09-10T13:38:24.728Z,949.07
2018-09-10T13:39:32.860Z,949.07
2018-09-10T13:40:40.869Z,949.00
2018-09-10T13:41:48.945Z,949.00
2018-09-10T13:42:57.051Z,949.04
2018-09-10T13:44:05.095Z,949.03
2018-09-10T13:45:13.512Z,949.05
2018-09-10T13:46:21.247Z,949.09
2018-09-10T13:47:29.304Z,949.04
2018-09-10T13:48:37.393Z,949.05
2018-09-10T13:49:45.463Z,949.01
2018-09-10T13:50:53.612Z,949.01
2018-09-10T13:52:01.704Z,949.01
2018-09-10T13:53:09.670Z,948.98
2018-09-10T13:54:17.829Z,948.97
2018-09-10T13:55:26.832Z,948.98
2018-09-10T13:56:34.012Z,949.00
2018-09-10T13:57:41.963Z,949.00
2018-09-10T13:58:50.758Z,948.98
2018-09-10T13:59:58.109Z,948.96
2018-09-10T14:01:06.449Z,948.89
2018-09-10T14:02:14.557Z,948.94
2018-09-10T14:03:22.517Z,948.89
2018-09-10T14:04:30.707Z,948.91
2018-09-10T14:05:38.671Z,948.91
2018-09-10T14:06:46.753Z,948.90
2018-09-10T14:07:55.179Z,948.89
2018-09-10T14:09:02.858Z,948.89
2018-09-10T14:10:11.005Z,948.93
2018-09-10T14:11:19.024Z,948.92
2018-09-10T14:12:27.120Z,948.91
2018-09-10T14:13:35.191Z,948.92
2018-09-10T14:14:43.287Z,948.92
2018-09-10T14:15:51.299Z,948.92
2018-09-10T14:16:59.401Z,948.92
2018-09-10T14:18:07.659Z,948.94
2018-09-10T14:19:15.547Z,948.91
2018-09-10T14:20:23.615Z,948.93
2018-09-10T14:21:31.687Z,948.91
2018-09-10T14:22:39.854Z,948.91
2018-09-10T14:23:47.917Z,948.92
2018-09-10T14:24:56.084Z,948.94
2018-09-10T14:26:04.175Z,948.90
2018-09-10T14:27:12.268Z,948.91
2018-09-10T14:28:20.407Z,948.92
2018-09-10T14:29:28.390Z,948.93